Time;durP1;ratioP1;P1;durP2;ratioP2;P2;SDS_P1;SDS_P2;PMS_P1;PMS_P2;Temp;Humidity;BMP_temperature;BMP_pressure;BME280_temperature;BME280_humidity;BME280_pressure;Samples;Min_cycle;Max_cycle;Signal;HPM_P1;HPM_P2
2023/08/25 07:01:43;;;;;;;1.58;1.52;;;21.90;99.90;25.40;100467.00;;;;6084986;22;1859889;-70
2023/08/25 07:04:30;;;;;;;1.10;1.10;;;21.90;99.90;25.10;100454.00;;;;6136609;23;20591;-70
2023/08/25 07:07:06;;;;;;;1.10;1.10;;;21.60;99.90;25.60;100478.00;;;;6187294;23;20206;-69
2023/08/25 07:09:38;;;;;;;1.00;1.00;;;21.80;99.90;26.00;100478.00;;;;6187137;23;20147;-70
2023/08/25 07:12:24;;;;;;;1.20;1.20;;;22.10;99.90;26.00;100471.00;;;;6160743;23;20148;-70
2023/08/25 07:15:04;;;;;;;1.27;1.27;;;22.30;99.90;26.30;100464.00;;;;6160648;23;20139;-70
2023/08/25 07:17:37;;;;;;;1.17;1.17;;;22.30;99.90;26.00;100464.00;;;;6161095;23;20563;-70
2023/08/25 07:20:14;;;;;;;1.85;1.85;;;22.30;99.90;26.00;100463.00;;;;6160612;23;20222;-70
2023/08/25 07:23:03;;;;;;;1.08;1.08;;;22.40;99.90;26.20;100458.00;;;;6160843;23;20167;-70
2023/08/25 07:25:46;;;;;;;1.10;1.10;;;22.40;99.90;26.70;100444.00;;;;6066628;23;20171;-70
2023/08/25 07:28:28;;;;;;;1.00;1.00;;;22.80;99.90;26.60;100461.00;;;;6158971;23;20245;-70
2023/08/25 07:31:17;;;;;;;1.08;1.08;;;22.90;99.90;26.90;100475.00;;;;6186520;23;20190;-70
2023/08/25 07:34:03;;;;;;;1.52;1.52;;;23.00;99.90;26.10;100473.00;;;;6140772;23;20520;-69
2023/08/25 07:36:38;;;;;;;1.10;1.10;;;23.20;99.90;26.70;100477.00;;;;6185861;23;20293;-71
2023/08/25 07:39:10;;;;;;;1.10;1.10;;;23.00;99.90;26.40;100469.00;;;;6160102;23;20476;-68
2023/08/25 07:41:38;;;;;;;1.10;1.10;;;22.90;99.90;25.90;100455.00;;;;6135768;23;20221;-70
2023/08/25 07:44:13;;;;;;;2.75;2.65;;;22.60;99.90;26.20;100479.00;;;;6160610;23;20519;-70
2023/08/25 07:46:57;;;;;;;1.00;1.00;;;22.70;99.90;26.20;100489.00;;;;6160762;23;20139;-70
2023/08/25 07:49:34;;;;;;;1.00;1.00;;;22.70;99.90;26.50;100493.00;;;;6186673;23;20143;-70
2023/08/25 07:52:09;;;;;;;1.10;1.10;;;22.80;99.90;26.80;100483.00;;;;6160157;23;20147;-70
2023/08/25 07:54:55;;;;;;;1.10;1.10;;;23.00;99.90;26.50;100489.00;;;;6186690;23;20226;-70
2023/08/25 07:57:46;;;;;;;1.00;1.00;;;23.00;99.90;26.30;100502.00;;;;6121141;23;20556;-70
2023/08/25 08:00:17;;;;;;;7.00;6.00;;;22.80;99.90;25.90;100504.00;;;;6169639;23;20218;-70
2023/08/25 08:02:46;;;;;;;5.00;4.63;;;22.60;99.90;25.20;100506.00;;;;6160144;23;20171;-70
2023/08/25 08:05:36;;;;;;;3.13;2.95;;;22.20;99.90;24.70;100506.00;;;;6135388;23;20293;-70
2023/08/25 08:08:02;;;;;;;2.17;1.98;;;21.80;99.90;25.50;100508.00;;;;6160923;23;20521;-70
2023/08/25 08:10:48;;;;;;;0.90;0.90;;;21.90;99.90;26.20;100498.00;;;;6135658;23;20186;-70
2023/08/25 08:13:39;;;;;;;1.52;1.52;;;22.30;99.90;26.40;100477.00;;;;6135280;23;20242;-71
2023/08/25 08:16:16;;;;;;;1.48;1.48;;;22.60;99.90;25.10;100489.00;;;;6148108;23;20163;-70
2023/08/25 08:18:45;;;;;;;0.90;0.90;;;22.30;99.90;25.10;100496.00;;;;6160003;23;20155;-70
2023/08/25 08:21:32;;;;;;;3.92;3.72;;;22.10;99.90;25.80;100506.00;;;;6159615;23;20139;-70
2023/08/25 08:24:18;;;;;;;4.45;4.20;;;22.20;99.90;25.50;100500.00;;;;6160256;23;20502;-69
2023/08/25 08:26:56;;;;;;;2.17;2.15;;;22.30;99.90;26.50;100505.00;;;;6160367;23;20153;-70
2023/08/25 08:29:26;;;;;;;7.82;7.03;;;22.70;99.90;25.50;100502.00;;;;6160210;23;20544;-70
2023/08/25 08:31:58;;;;;;;4.07;3.50;;;22.60;99.90;23.80;100491.00;;;;6186004;23;20202;-69
2023/08/25 08:34:44;;;;;;;0.52;0.52;;;21.70;99.90;24.00;100527.00;;;;6186463;23;20135;-70
2023/08/25 08:37:30;;;;;;;1.23;1.23;;;21.50;99.90;24.90;100533.00;;;;6160172;23;20143;-70
2023/08/25 08:40:08;;;;;;;0.70;0.70;;;21.40;99.90;26.00;100518.00;;;;6159579;23;20599;-70
2023/08/25 08:42:57;;;;;;;5.85;5.18;;;22.10;99.90;25.40;100516.00;;;;6185927;23;20599;-70
2023/08/25 08:45:49;;;;;;;2.88;1.85;;;22.10;99.90;24.10;100516.00;;;;6160952;23;20155;-70
2023/08/25 08:48:33;;;;;;;3.28;3.05;;;22.00;99.90;24.60;100516.00;;;;6135907;23;20161;-70
2023/08/25 08:51:10;;;;;;;2.15;2.05;;;22.00;99.90;26.20;100517.00;;;;6160147;23;20150;-70
2023/08/25 08:53:44;;;;;;;1.50;1.40;;;22.90;99.90;25.90;100513.00;;;;6160492;23;20143;-70
2023/08/25 08:56:16;;;;;;;0.30;0.30;;;23.10;99.90;28.20;100482.00;;;;6160498;23;20155;-70
2023/08/25 08:58:48;;;;;;;0.40;0.40;;;24.30;99.90;30.40;100523.00;;;;6160415;23;20571;-70
2023/08/25 09:01:34;;;;;;;0.85;0.85;;;25.80;99.90;31.80;100564.00;;;;6159523;23;20197;-70
2023/08/25 09:04:09;;;;;;;6.35;4.30;;;27.20;99.90;28.20;100532.00;;;;6134409;23;20167;-70
2023/08/25 09:06:43;;;;;;;0.28;0.28;;;26.40;99.90;30.10;100544.00;;;;6160181;23;20273;-70
2023/08/25 09:09:29;;;;;;;0.20;0.20;;;26.20;99.90;30.50;100556.00;;;;6160204;23;20532;-70
2023/08/25 09:12:10;;;;;;;1.52;1.50;;;26.70;99.90;29.30;100546.00;;;;6160049;23;20144;-70
2023/08/25 09:14:59;;;;;;;0.30;0.30;;;26.00;99.90;30.40;100548.00;;;;6160148;23;20150;-71
2023/08/25 09:17:47;;;;;;;1.08;0.80;;;26.30;99.90;31.20;100547.00;;;;6159346;23;20177;-71
2023/08/25 09:20:35;;;;;;;1.17;0.80;;;27.00;99.90;32.60;100553.00;;;;6159430;23;20190;-71
2023/08/25 09:23:02;;;;;;;0.20;0.20;;;28.10;99.90;33.50;100596.00;;;;6121410;23;20187;-72
2023/08/25 09:25:34;;;;;;;0.10;0.10;;;29.00;99.90;33.20;100638.00;;;;6135415;23;20158;-72
2023/08/25 09:28:27;;;;;;;2.03;1.85;;;29.30;99.90;31.70;100635.00;;;;6160503;23;20139;-71
2023/08/25 09:31:26;;;;;;;0.20;0.20;;;28.70;99.90;32.00;100595.00;;;;6159256;23;20504;-71
2023/08/25 09:34:13;;;;;;;0.63;0.63;;;28.00;99.90;32.40;100639.00;;;;6160054;23;20198;-71
2023/08/25 09:36:57;;;;;;;0.30;0.30;;;28.60;99.90;30.50;100599.00;;;;6160060;23;20201;-71
2023/08/25 09:39:39;;;;;;;1.05;1.05;;;27.80;99.90;30.70;100548.00;;;;6158766;23;20399;-71
2023/08/25 09:42:23;;;;;;;1.20;1.20;;;27.60;99.90;32.10;100610.00;;;;6161531;23;20493;-71
2023/08/25 09:45:09;;;;;;;3.83;2.17;;;28.00;99.90;29.40;100561.00;;;;6134894;23;20165;-71
2023/08/25 09:47:42;;;;;;;4.95;3.03;;;27.10;99.90;28.40;100547.00;;;;6134998;23;20163;-71
2023/08/25 09:50:35;;;;;;;1.30;1.30;;;26.00;99.90;28.10;100550.00;;;;6159499;23;20144;-70
2023/08/25 09:53:25;;;;;;;0.10;0.10;;;25.50;99.90;29.70;100549.00;;;;6159606;23;20509;-71
2023/08/25 09:56:06;;;;;;;0.88;0.82;;;25.70;99.90;30.70;100601.00;;;;6135146;23;20163;-70
2023/08/25 09:58:42;;;;;;;6.00;3.50;;;26.60;99.90;26.70;100553.00;;;;6159745;23;20563;-70
2023/08/25 10:01:11;;;;;;;0.75;0.63;;;25.60;99.90;28.80;100581.00;;;;6182491;23;20253;-71
2023/08/25 10:03:48;;;;;;;11.57;5.57;;;25.40;99.90;28.00;100556.00;;;;6214946;23;20185;-70
2023/08/25 10:06:38;;;;;;;14.40;7.20;;;25.50;99.90;28.20;100588.00;;;;6189422;23;20149;-71
2023/08/25 10:09:17;;;;;;;0.98;0.98;;;25.20;99.90;27.60;100575.00;;;;6189082;23;20157;-70
2023/08/25 10:11:55;;;;;;;1.88;1.77;;;24.90;99.90;28.30;100542.00;;;;6188637;23;20216;-70
2023/08/25 10:14:46;;;;;;;3.25;2.92;;;24.90;99.90;25.70;100548.00;;;;6189395;23;20272;-70
2023/08/25 10:17:21;;;;;;;4.10;3.80;;;24.00;99.90;27.80;100536.00;;;;6164613;23;20217;-71
2023/08/25 10:20:12;;;;;;;2.58;2.42;;;24.50;99.90;28.30;100588.00;;;;6189240;23;20138;-70
2023/08/25 10:33:29;;;;;;;4.18;3.78;;;23.70;99.90;24.90;100538.00;;;;5090375;27;20554;-69
2023/08/25 10:36:14;;;;;;;1.45;1.42;;;23.40;99.90;26.60;100545.00;;;;5068755;28;20239;-69
2023/08/25 10:39:03;;;;;;;9.10;5.40;;;23.80;99.90;26.20;100550.00;;;;5068781;28;20192;-70
2023/08/25 10:41:55;;;;;;;3.15;2.85;;;23.70;99.90;25.80;100539.00;;;;5067372;28;20247;-70
2023/08/25 10:44:40;;;;;;;0.60;0.60;;;23.40;99.90;25.70;100539.00;;;;5066343;28;20216;-70
2023/08/25 10:47:27;;;;;;;4.35;3.97;;;23.20;99.90;25.20;100558.00;;;;5070230;28;20231;-69
2023/08/25 10:50:03;;;;;;;10.68;9.77;;;23.10;99.90;25.40;100547.00;;;;5068893;28;20185;-69
2023/08/25 10:52:33;;;;;;;17.60;9.30;;;22.90;99.90;25.30;100550.00;;;;5068373;28;20217;-69
2023/08/25 10:55:28;;;;;;;2.15;2.00;;;23.10;99.90;26.50;100556.00;;;;5051923;28;20189;-69
2023/08/25 10:58:06;;;;;;;8.98;4.55;;;23.30;99.90;25.90;100546.00;;;;5077411;28;20284;-69
2023/08/25 11:00:43;;;;;;;2.03;1.90;;;23.40;99.90;25.30;100553.00;;;;5068331;28;20547;-69
2023/08/25 11:03:48;;;;;;;1.85;1.75;;;23.10;99.90;26.60;100565.00;;;;5068297;28;20181;-70
2023/08/25 11:06:58;;;;;;;2.40;2.03;;;23.30;99.90;26.00;100570.00;;;;5069401;28;20189;-70
2023/08/25 11:09:47;;;;;;;2.08;1.92;;;23.30;99.90;26.00;100579.00;;;;4991544;28;20195;-69
2023/08/25 11:12:33;;;;;;;2.67;2.47;;;23.30;99.90;25.30;100561.00;;;;4991378;28;20366;-69
2023/08/25 11:15:08;;;;;;;3.42;2.65;;;23.10;99.90;25.70;100589.00;;;;5001616;28;20230;-69
2023/08/25 11:17:45;;;;;;;3.92;3.33;;;23.30;99.90;26.10;100570.00;;;;4991353;28;20190;-69
2023/08/25 11:20:12;;;;;;;2.47;2.38;;;23.10;99.90;25.90;100555.00;;;;5064745;28;20188;-70
2023/08/25 11:23:36;;;;;;;0.10;0.10;;;23.30;99.90;27.40;100572.00;;;;5064850;28;20392;-69
2023/08/25 11:26:08;;;;;;;0.63;0.60;;;24.40;99.90;29.40;100579.00;;;;5025914;28;20715;-69
2023/08/25 11:28:38;;;;;;;0.20;0.20;;;25.20;99.90;30.40;100563.00;;;;5011161;28;20202;-69
2023/08/25 11:31:28;;;;;;;4.93;3.50;;;26.30;99.90;30.80;100592.00;;;;5022421;28;20196;-70
2023/08/25 11:34:14;;;;;;;1.48;1.38;;;27.20;99.90;30.80;100537.00;;;;5010823;28;20241;-69
2023/08/25 11:37:05;;;;;;;2.15;2.05;;;27.10;99.90;29.40;100540.00;;;;5099354;28;20520;-70
2023/08/25 11:39:42;;;;;;;3.78;2.08;;;26.50;99.90;27.00;100544.00;;;;5067608;28;20221;-69
2023/08/25 11:42:19;;;;;;;7.68;2.13;;;25.60;99.90;26.00;100539.00;;;;5050399;28;20269;-70
2023/08/25 11:44:59;;;;;;;10.25;6.18;;;24.60;99.90;26.70;100544.00;;;;5040761;28;20296;-69
2023/08/25 11:47:48;;;;;;;1.65;1.55;;;24.50;99.90;26.50;100543.00;;;;5049725;28;20178;-70
2023/08/25 11:50:37;;;;;;;4.95;4.43;;;24.20;99.90;27.30;100557.00;;;;5042483;28;20195;-70
2023/08/25 11:53:12;;;;;;;3.22;2.22;;;24.60;99.90;27.00;100568.00;;;;5052429;28;20198;-69
2023/08/25 11:56:01;;;;;;;0.63;0.63;;;24.50;99.90;28.00;100582.00;;;;5054395;28;20231;-69
2023/08/25 11:59:00;;;;;;;4.18;3.58;;;24.40;99.90;27.90;100574.00;;;;5047277;28;20636;-69
2023/08/25 12:01:35;;;;;;;0.38;0.38;;;24.70;99.90;26.90;100574.00;;;;5050070;28;20206;-70
2023/08/25 12:04:26;;;;;;;3.33;2.35;;;24.40;99.90;28.00;100578.00;;;;5043205;28;20178;-70
2023/08/25 12:07:03;;;;;;;12.88;1.23;;;24.70;99.90;26.40;100578.00;;;;5054046;28;20200;-69
2023/08/25 12:09:54;;;;;;;0.68;0.68;;;24.30;99.90;26.50;100572.00;;;;5051099;28;20182;-69
2023/08/25 12:12:45;;;;;;;1.20;0.82;;;23.90;99.90;26.40;100526.00;;;;5053972;28;20210;-69
2023/08/25 12:15:42;;;;;;;1.45;0.63;;;23.70;99.90;26.10;100529.00;;;;4956481;28;20200;-69
2023/08/25 12:18:14;;;;;;;0.10;0.10;;;23.50;99.90;27.80;100581.00;;;;4988197;28;20305;-70
2023/08/25 12:21:07;;;;;;;1.00;0.95;;;24.00;99.90;27.30;100548.00;;;;4942161;28;20698;-70
2023/08/25 12:23:51;;;;;;;2.17;2.08;;;24.20;99.90;26.30;100525.00;;;;4953636;28;20228;-70
2023/08/25 12:26:29;;;;;;;1.00;0.75;;;24.10;99.90;26.20;100563.00;;;;4957648;28;20197;-69
2023/08/25 12:29:06;;;;;;;0.20;0.20;;;23.90;99.90;27.70;100579.00;;;;4945289;28;20484;-70
2023/08/25 12:31:54;;;;;;;0.55;0.55;;;24.20;99.90;26.70;100562.00;;;;4951680;29;20229;-69
2023/08/25 12:34:26;;;;;;;1.38;1.30;;;24.00;99.90;28.50;100593.00;;;;5064895;28;20190;-69
2023/08/25 12:36:58;;;;;;;3.05;1.92;;;24.70;99.90;27.30;100577.00;;;;5053130;28;20640;-70
2023/08/25 12:39:44;;;;;;;0.17;0.17;;;24.40;99.90;27.10;100577.00;;;;5036895;28;20182;-69
2023/08/25 12:42:33;;;;;;;3.97;3.13;;;24.40;99.90;26.20;100566.00;;;;5052875;28;20278;-69
2023/08/25 12:45:11;;;;;;;5.88;2.15;;;24.00;99.90;25.80;100568.00;;;;5042511;28;20617;-70
2023/08/25 12:47:46;;;;;;;4.93;3.65;;;23.80;99.90;25.60;100570.00;;;;5052129;28;20182;-69
2023/08/25 12:50:44;;;;;;;8.35;5.82;;;23.50;99.90;25.30;100566.00;;;;5054362;28;20220;-70
2023/08/25 12:53:31;;;;;;;9.73;4.70;;;23.20;99.90;25.20;100554.00;;;;5048102;28;20214;-69
2023/08/25 12:55:59;;;;;;;2.35;2.10;;;23.20;99.90;24.70;100563.00;;;;5056897;28;20187;-69
2023/08/25 12:58:38;;;;;;;12.13;6.57;;;22.90;99.90;25.40;100554.00;;;;5052122;28;20239;-70
2023/08/25 13:01:27;;;;;;;7.93;3.25;;;23.00;99.90;24.30;100533.00;;;;5075544;28;20200;-69
2023/08/25 13:03:59;;;;;;;1.48;1.13;;;22.80;99.90;24.90;100533.00;;;;5032983;28;20212;-69
2023/08/25 13:06:54;;;;;;;6.43;3.95;;;22.80;99.90;24.60;100572.00;;;;5052778;28;20575;-69
2023/08/25 13:09:25;;;;;;;3.25;2.58;;;22.70;99.90;25.20;100569.00;;;;5046508;28;20206;-69
2023/08/25 13:12:11;;;;;;;4.45;3.80;;;22.80;99.90;25.80;100568.00;;;;5052300;28;20680;-70
2023/08/25 13:14:49;;;;;;;2.65;2.42;;;22.90;99.90;24.90;100561.00;;;;5052552;28;20194;-69
2023/08/25 13:17:35;;;;;;;3.97;2.15;;;22.90;99.90;24.90;100532.00;;;;5053513;28;20268;-69
2023/08/25 13:20:22;;;;;;;5.57;4.28;;;22.70;99.90;25.90;100572.00;;;;5046327;28;20177;-70
2023/08/25 13:23:11;;;;;;;0.57;0.57;;;23.30;99.90;25.40;100577.00;;;;5048930;28;20240;-69
2023/08/25 13:25:40;;;;;;;6.22;3.03;;;23.10;99.90;25.80;100590.00;;;;5048200;28;20187;-70
2023/08/25 13:28:27;;;;;;;2.53;2.33;;;23.30;99.90;26.20;100580.00;;;;5047343;28;20232;-70
2023/08/25 13:30:56;;;;;;;2.08;1.95;;;23.40;99.90;25.90;100564.00;;;;5052725;28;20189;-70
2023/08/25 13:33:29;;;;;;;1.63;1.52;;;23.40;99.90;26.20;100579.00;;;;5052394;28;20248;-70
2023/08/25 13:36:04;;;;;;;1.95;1.85;;;23.60;99.90;26.60;100567.00;;;;5052555;28;20232;-70
2023/08/25 13:38:56;;;;;;;5.68;3.90;;;23.50;99.90;26.20;100568.00;;;;5048159;28;20185;-69
2023/08/25 13:41:30;;;;;;;5.60;4.65;;;23.40;99.90;25.90;100560.00;;;;5060895;28;20205;-70
2023/08/25 13:44:26;;;;;;;9.95;5.70;;;23.50;99.90;26.20;100574.00;;;;5049018;28;20189;-70
2023/08/25 13:47:19;;;;;;;9.20;1.83;;;23.50;99.90;25.00;100558.00;;;;5053041;28;20214;-70
2023/08/25 13:50:06;;;;;;;13.00;4.40;;;23.30;99.90;25.10;100565.00;;;;5044121;28;20198;-69
2023/08/25 13:52:41;;;;;;;4.03;2.85;;;23.20;99.90;26.00;100591.00;;;;5052012;28;20198;-70
2023/08/25 13:55:30;;;;;;;5.60;5.15;;;23.50;99.90;26.50;100588.00;;;;5035855;28;20194;-69
2023/08/25 13:57:59;;;;;;;3.13;0.70;;;23.80;99.90;27.30;100589.00;;;;5067853;28;21401;-69
2023/08/25 14:00:34;;;;;;;1.50;1.05;;;24.10;99.90;27.90;100598.00;;;;5052193;28;20191;-70
2023/08/25 14:03:11;;;;;;;0.68;0.68;;;24.40;99.90;28.60;100596.00;;;;5051581;28;20186;-69
2023/08/25 14:05:46;;;;;;;0.43;0.43;;;24.90;99.90;28.10;100574.00;;;;5052162;28;20182;-70
2023/08/25 14:08:33;;;;;;;0.43;0.43;;;24.80;99.90;28.80;100619.00;;;;5024699;28;20212;-70
2023/08/25 14:10:58;;;;;;;0.20;0.20;;;25.00;99.90;28.20;100615.00;;;;5052294;28;20255;-70
2023/08/25 14:13:58;;;;;;;0.73;0.73;;;24.80;99.90;28.20;100618.00;;;;5051939;28;20202;-70
2023/08/25 14:16:52;;;;;;;0.50;0.50;;;24.70;99.90;27.80;100613.00;;;;5037485;28;20204;-70
2023/08/25 14:19:29;;;;;;;0.20;0.20;;;24.50;99.90;28.10;100629.00;;;;5051759;28;20658;-70
2023/08/25 14:22:16;;;;;;;0.30;0.30;;;24.40;99.90;27.70;100629.00;;;;5051903;28;20268;-70
2023/08/25 14:24:50;;;;;;;0.20;0.20;;;24.30;99.90;28.10;100625.00;;;;5051237;28;20202;-70
2023/08/25 14:27:34;;;;;;;0.20;0.20;;;24.30;99.90;28.30;100637.00;;;;5052613;28;20208;-70
2023/08/25 14:30:26;;;;;;;1.10;1.10;;;24.50;99.90;28.20;100632.00;;;;5051935;28;20185;-70
2023/08/25 14:33:22;;;;;;;0.88;0.88;;;24.50;99.90;28.00;100637.00;;;;5028654;28;20321;-70
2023/08/25 14:36:06;;;;;;;0.20;0.20;;;24.40;99.90;28.20;100620.00;;;;5028620;28;20652;-70
2023/08/25 14:38:41;;;;;;;0.70;0.70;;;24.30;99.90;28.40;100621.00;;;;5034841;28;20203;-70
2023/08/25 14:41:10;;;;;;;2.40;2.35;;;24.40;99.90;27.60;100621.00;;;;5051485;28;20581;-70
2023/08/25 14:43:56;;;;;;;0.63;0.63;;;24.20;99.90;27.00;100629.00;;;;5051541;28;20232;-70
2023/08/25 14:46:28;;;;;;;0.30;0.30;;;23.90;99.90;27.30;100635.00;;;;5051254;28;20189;-69
2023/08/25 14:49:17;;;;;;;0.85;0.85;;;23.70;99.90;27.70;100618.00;;;;5051167;28;20189;-70
2023/08/25 14:52:00;;;;;;;0.40;0.40;;;23.70;99.90;27.60;100629.00;;;;5012625;28;20271;-70
2023/08/25 14:54:46;;;;;;;2.75;1.38;;;23.80;99.90;27.50;100641.00;;;;5047508;28;20209;-70
2023/08/25 14:57:36;;;;;;;0.50;0.50;;;23.80;99.90;27.30;100636.00;;;;5032810;28;20887;-70
2023/08/25 15:00:12;;;;;;;0.30;0.30;;;23.80;99.90;27.40;100648.00;;;;5041547;28;20392;-70
2023/08/25 15:02:56;;;;;;;0.30;0.30;;;23.80;99.90;27.50;100641.00;;;;5048992;28;20656;-70
2023/08/25 15:05:43;;;;;;;0.30;0.30;;;23.70;99.90;27.70;100654.00;;;;5048403;28;20179;-70
2023/08/25 15:08:28;;;;;;;0.30;0.30;;;23.80;99.90;27.50;100653.00;;;;5045401;28;20182;-69
2023/08/25 15:11:05;;;;;;;0.32;0.32;;;23.80;99.90;27.10;100632.00;;;;5042452;28;20205;-70
2023/08/25 15:13:51;;;;;;;0.47;0.47;;;23.60;99.90;27.40;100628.00;;;;5040990;28;20622;-70
2023/08/25 15:16:20;;;;;;;0.73;0.73;;;23.50;99.90;27.40;100634.00;;;;5049568;28;20198;-70
2023/08/25 15:18:49;;;;;;;0.20;0.20;;;23.60;99.90;27.30;100591.00;;;;5053854;28;20636;-70
2023/08/25 15:21:30;;;;;;;0.75;0.75;;;23.60;99.90;27.90;100627.00;;;;5055706;28;20193;-70
2023/08/25 15:24:08;;;;;;;0.57;0.57;;;23.90;99.90;28.20;100628.00;;;;5055133;28;20787;-70
2023/08/25 15:26:54;;;;;;;0.20;0.20;;;24.20;99.90;28.50;100637.00;;;;5056452;28;20178;-70
2023/08/25 15:29:26;;;;;;;0.63;0.63;;;24.50;99.90;28.90;100631.00;;;;5054047;28;20727;-70
2023/08/25 15:32:14;;;;;;;0.35;0.35;;;24.90;99.90;28.50;100606.00;;;;5054611;28;20253;-70
2023/08/25 15:35:38;;;;;;;0.55;0.55;;;24.90;99.90;28.50;100627.00;;;;5049642;28;20178;-70
2023/08/25 15:38:16;;;;;;;0.20;0.20;;;24.80;99.90;28.60;100620.00;;;;5049986;28;20182;-71
2023/08/25 15:41:09;;;;;;;2.42;1.48;;;24.90;99.90;28.40;100626.00;;;;5054374;28;20182;-70
2023/08/25 15:43:58;;;;;;;0.20;0.20;;;24.90;99.90;28.60;100629.00;;;;5054610;28;20182;-71
2023/08/25 15:46:27;;;;;;;1.00;0.90;;;25.00;99.90;28.80;100617.00;;;;5055366;28;20225;-71
2023/08/25 15:49:21;;;;;;;0.63;0.63;;;25.00;99.90;29.30;100630.00;;;;5054633;28;20215;-69
2023/08/25 15:52:10;;;;;;;1.63;1.60;;;25.30;99.90;29.20;100650.00;;;;5053102;28;20624;-70
2023/08/25 15:54:43;;;;;;;0.63;0.63;;;25.40;99.90;27.90;100621.00;;;;5037583;28;20174;-70
2023/08/25 15:57:18;;;;;;;0.15;0.15;;;24.90;99.90;28.80;100619.00;;;;5046714;28;20198;-71
2023/08/25 15:59:50;;;;;;;0.55;0.55;;;24.90;99.90;28.60;100618.00;;;;5055468;28;20276;-70
2023/08/25 16:02:36;;;;;;;5.70;3.97;;;25.00;99.90;28.00;100617.00;;;;5053897;28;20208;-70
2023/08/25 16:05:23;;;;;;;0.60;0.47;;;24.90;99.90;28.80;100623.00;;;;5053899;28;20224;-69
2023/08/25 16:07:52;;;;;;;0.15;0.15;;;24.90;99.90;28.60;100632.00;;;;5039452;28;20202;-70
2023/08/25 16:10:38;;;;;;;1.80;1.70;;;24.90;99.90;28.20;100610.00;;;;5054391;28;20185;-71
2023/08/25 16:13:28;;;;;;;1.85;1.75;;;24.80;99.90;28.30;100620.00;;;;5048951;28;20251;-71
2023/08/25 16:16:05;;;;;;;1.75;1.60;;;24.70;99.90;28.10;100621.00;;;;5052713;28;20194;-70
2023/08/25 16:18:35;;;;;;;0.40;0.40;;;24.50;99.90;28.10;100611.00;;;;5054364;28;20655;-70
2023/08/25 16:21:21;;;;;;;0.20;0.20;;;24.50;99.90;28.00;100613.00;;;;5040816;28;20190;-70
2023/08/25 16:23:50;;;;;;;0.30;0.30;;;24.30;99.90;28.40;100628.00;;;;5049898;28;20223;-70
2023/08/25 16:26:41;;;;;;;0.20;0.20;;;24.40;99.90;28.00;100622.00;;;;5037106;28;20235;-71
2023/08/25 16:29:27;;;;;;;0.20;0.20;;;24.30;99.90;27.70;100630.00;;;;5035262;28;20236;-70
2023/08/25 16:31:58;;;;;;;1.05;1.05;;;24.10;99.90;27.00;100616.00;;;;5038039;28;20237;-69
2023/08/25 16:34:27;;;;;;;0.25;0.25;;;23.70;99.90;27.60;100629.00;;;;5053342;28;20243;-70
2023/08/25 16:36:58;;;;;;;0.10;0.10;;;23.80;99.90;27.50;100631.00;;;;5053399;28;20316;-70
2023/08/25 16:39:35;;;;;;;0.20;0.20;;;23.80;99.90;27.50;100621.00;;;;5059682;28;20251;-71
2023/08/25 16:42:13;;;;;;;0.20;0.20;;;23.80;99.90;27.40;100629.00;;;;5053232;28;20246;-70
2023/08/25 16:44:59;;;;;;;0.20;0.20;;;23.80;99.90;27.40;100629.00;;;;5053618;28;20272;-70
2023/08/25 16:47:46;;;;;;;0.28;0.28;;;23.70;99.90;27.20;100631.00;;;;5028998;28;20271;-71
2023/08/25 16:50:21;;;;;;;0.57;0.57;;;23.50;99.90;26.70;100633.00;;;;5050373;28;20267;-70
2023/08/25 16:53:16;;;;;;;0.25;0.25;;;23.20;99.90;26.60;100625.00;;;;5050220;28;20197;-70
2023/08/25 16:56:05;;;;;;;0.30;0.30;;;23.00;99.90;26.80;100607.00;;;;5047971;28;20194;-71
2023/08/25 16:58:56;;;;;;;0.47;0.47;;;22.90;99.90;26.60;100612.00;;;;5054071;28;20664;-71
2023/08/25 17:01:28;;;;;;;0.30;0.30;;;22.90;99.90;26.40;100611.00;;;;5051757;28;20193;-70
2023/08/25 17:04:14;;;;;;;0.30;0.30;;;22.70;99.90;26.40;100595.00;;;;5069476;28;20562;-71
2023/08/25 17:07:00;;;;;;;0.30;0.30;;;22.60;99.90;25.70;100591.00;;;;5053926;28;20235;-71
2023/08/25 17:09:50;;;;;;;0.60;0.60;;;22.50;99.90;25.90;100597.00;;;;5035558;28;20197;-70
2023/08/25 17:12:36;;;;;;;0.77;0.77;;;22.30;99.90;26.20;100605.00;;;;5052479;28;20217;-71
2023/08/25 17:15:22;;;;;;;0.40;0.40;;;22.40;99.90;26.20;100609.00;;;;5053959;28;20182;-71
2023/08/25 17:18:17;;;;;;;0.40;0.40;;;22.50;99.90;26.30;100614.00;;;;5052288;28;20185;-70
2023/08/25 17:20:45;;;;;;;0.70;0.70;;;22.60;99.90;26.40;100618.00;;;;5042843;28;20540;-71
2023/08/25 17:23:25;;;;;;;0.50;0.50;;;22.70;99.90;25.50;100608.00;;;;5056520;28;20559;-71
2023/08/25 17:26:12;;;;;;;0.40;0.40;;;22.40;99.90;25.50;100609.00;;;;5051601;28;20202;-71
2023/08/25 17:28:47;;;;;;;0.45;0.45;;;22.20;99.90;26.00;100589.00;;;;5044974;28;20636;-71
2023/08/25 17:31:26;;;;;;;0.30;0.30;;;22.30;99.90;24.80;100616.00;;;;5048881;28;20178;-71
2023/08/25 17:34:19;;;;;;;0.30;0.30;;;22.20;99.90;25.70;100604.00;;;;5044590;28;20666;-69
2023/08/25 17:37:12;;;;;;;1.35;1.35;;;22.10;99.90;25.90;100618.00;;;;5042733;28;20546;-70
2023/08/25 17:40:05;;;;;;;0.30;0.30;;;22.10;99.90;25.80;100628.00;;;;5036761;28;20660;-71
2023/08/25 17:42:55;;;;;;;0.32;0.32;;;22.20;99.90;25.80;100633.00;;;;5046688;28;20573;-69
2023/08/25 17:45:44;;;;;;;0.73;0.73;;;22.20;99.90;25.70;100639.00;;;;5047586;28;20202;-70
2023/08/25 17:48:36;;;;;;;1.88;1.77;;;22.00;99.90;26.10;100641.00;;;;5034437;28;20194;-70
2023/08/25 17:51:08;;;;;;;5.25;3.72;;;22.20;99.90;24.20;100614.00;;;;5048205;28;20574;-70
2023/08/25 17:53:54;;;;;;;0.40;0.40;;;21.90;99.90;24.40;100611.00;;;;5051922;28;20576;-70
2023/08/25 17:56:44;;;;;;;0.30;0.30;;;21.60;99.90;24.70;100608.00;;;;5052910;28;20201;-70
2023/08/25 17:59:12;;;;;;;0.47;0.47;;;21.40;99.90;25.40;100603.00;;;;5051011;28;20186;-70
2023/08/25 18:01:44;;;;;;;0.50;0.50;;;21.60;99.90;25.30;100634.00;;;;5048674;28;20551;-71
2023/08/25 18:04:30;;;;;;;0.30;0.30;;;21.70;99.90;24.60;100642.00;;;;5035584;28;20186;-69
2023/08/25 18:07:05;;;;;;;0.30;0.30;;;21.50;99.90;25.20;100648.00;;;;5049675;28;20239;-69
2023/08/25 18:09:50;;;;;;;0.30;0.30;;;21.60;99.90;24.70;100658.00;;;;5053110;28;20186;-69
2023/08/25 18:12:24;;;;;;;0.68;0.68;;;21.50;99.90;24.60;100654.00;;;;5034933;28;20687;-70
2023/08/25 18:15:11;;;;;;;0.40;0.40;;;21.30;99.90;25.00;100664.00;;;;5047679;28;20203;-69
2023/08/25 18:17:46;;;;;;;0.38;0.38;;;21.30;99.90;24.70;100632.00;;;;5045282;28;20719;-70
2023/08/25 18:20:35;;;;;;;0.40;0.40;;;21.30;99.90;25.00;100668.00;;;;5052011;28;20284;-70
2023/08/25 18:23:10;;;;;;;0.40;0.40;;;21.30;99.90;25.10;100671.00;;;;5043265;28;20221;-70
2023/08/25 18:25:48;;;;;;;0.60;0.60;;;21.30;99.90;25.30;100675.00;;;;5051585;28;20191;-70
2023/08/25 18:28:23;;;;;;;0.43;0.43;;;21.40;99.90;25.50;100688.00;;;;5068492;28;20193;-70
2023/08/25 18:31:36;;;;;;;0.65;0.65;;;21.50;99.90;25.60;100696.00;;;;5052724;28;20217;-70
2023/08/25 18:34:25;;;;;;;0.40;0.40;;;21.70;99.90;25.20;100692.00;;;;5050951;28;20263;-70
2023/08/25 18:37:10;;;;;;;0.88;0.88;;;21.60;99.90;25.10;100695.00;;;;5048009;28;20645;-70
2023/08/25 18:39:48;;;;;;;0.40;0.40;;;21.50;99.90;25.10;100684.00;;;;5044532;28;20194;-70
2023/08/25 18:42:34;;;;;;;0.40;0.40;;;21.40;99.90;24.80;100678.00;;;;5046063;28;20648;-70
2023/08/25 18:45:31;;;;;;;0.68;0.68;;;21.20;99.90;25.00;100696.00;;;;5048916;28;20209;-70
2023/08/25 18:48:02;;;;;;;0.40;0.40;;;21.20;99.90;25.10;100687.00;;;;5042036;28;20191;-69
2023/08/25 18:50:35;;;;;;;0.47;0.47;;;21.30;99.90;25.00;100694.00;;;;5052611;28;20218;-70
2023/08/25 18:53:12;;;;;;;2.47;1.75;;;21.30;99.90;24.10;100694.00;;;;5065210;28;20221;-70
2023/08/25 18:56:01;;;;;;;0.30;0.30;;;21.20;99.90;24.80;100683.00;;;;5072093;28;20207;-70
2023/08/25 18:58:39;;;;;;;0.40;0.40;;;21.10;99.90;24.40;100699.00;;;;5046860;28;20182;-70
2023/08/25 19:01:26;;;;;;;0.40;0.40;;;21.10;99.90;24.50;100688.00;;;;5054489;28;20679;-70
2023/08/25 19:04:04;;;;;;;0.30;0.30;;;20.90;99.90;24.80;100691.00;;;;5038542;28;20268;-69